sensor_id;sensor_type;location;lat;lon;timestamp;pressure;altitude;pressure_sealevel;temperature;humidity
33191;BME280;19554;42.652;23.364;2022-11-15T00:01:26;95218.19;;;6.10;64.74
33191;BME280;19554;42.652;23.364;2022-11-15T00:03:52;95215.22;;;6.06;65.26
33191;BME280;19554;42.652;23.364;2022-11-15T00:06:17;95209.03;;;6.01;64.79
33191;BME280;19554;42.652;23.364;2022-11-15T00:08:43;95214.03;;;5.97;63.83
33191;BME280;19554;42.652;23.364;2022-11-15T00:11:10;95218.78;;;5.95;64.17
33191;BME280;19554;42.652;23.364;2022-11-15T00:13:36;95210.50;;;5.91;64.51
33191;BME280;19554;42.652;23.364;2022-11-15T00:16:02;95186.41;;;5.76;65.71
33191;BME280;19554;42.652;23.364;2022-11-15T00:18:28;95191.66;;;5.71;65.86
33191;BME280;19554;42.652;23.364;2022-11-15T00:20:54;95209.34;;;5.87;66.65
33191;BME280;19554;42.652;23.364;2022-11-15T00:23:19;95205.59;;;5.83;65.97
33191;BME280;19554;42.652;23.364;2022-11-15T00:25:44;95210.34;;;5.81;66.00
33191;BME280;19554;42.652;23.364;2022-11-15T00:28:10;95198.13;;;5.80;66.55
33191;BME280;19554;42.652;23.364;2022-11-15T00:30:35;95197.63;;;5.83;67.36
33191;BME280;19554;42.652;23.364;2022-11-15T00:33:05;95199.22;;;5.84;67.27
33191;BME280;19554;42.652;23.364;2022-11-15T00:35:34;95181.13;;;5.76;68.19
33191;BME280;19554;42.652;23.364;2022-11-15T00:37:59;95195.56;;;5.85;68.85
33191;BME280;19554;42.652;23.364;2022-11-15T00:40:25;95166.19;;;5.70;69.37
33191;BME280;19554;42.652;23.364;2022-11-15T00:42:50;95185.75;;;5.86;69.16
33191;BME280;19554;42.652;23.364;2022-11-15T00:45:16;95182.22;;;5.80;69.73
33191;BME280;19554;42.652;23.364;2022-11-15T00:47:44;95168.78;;;5.65;69.59
33191;BME280;19554;42.652;23.364;2022-11-15T00:50:10;95188.56;;;5.79;68.40
33191;BME280;19554;42.652;23.364;2022-11-15T00:52:36;95180.63;;;5.79;68.57
33191;BME280;19554;42.652;23.364;2022-11-15T00:55:01;95128.97;;;5.43;69.90
33191;BME280;19554;42.652;23.364;2022-11-15T00:57:27;95155.38;;;5.55;69.74
33191;BME280;19554;42.652;23.364;2022-11-15T00:59:52;95184.81;;;5.75;69.25
33191;BME280;19554;42.652;23.364;2022-11-15T01:02:17;95152.97;;;5.53;68.44
33191;BME280;19554;42.652;23.364;2022-11-15T01:04:43;95162.59;;;5.59;68.21
33191;BME280;19554;42.652;23.364;2022-11-15T01:07:08;95179.44;;;5.70;68.55
33191;BME280;19554;42.652;23.364;2022-11-15T01:09:33;95151.13;;;5.54;69.04
33191;BME280;19554;42.652;23.364;2022-11-15T01:11:59;95181.06;;;5.71;68.45
33191;BME280;19554;42.652;23.364;2022-11-15T01:14:24;95177.84;;;5.69;67.88
33191;BME280;19554;42.652;23.364;2022-11-15T01:16:50;95173.44;;;5.58;67.23
33191;BME280;19554;42.652;23.364;2022-11-15T01:19:15;95183.56;;;5.61;67.46
33191;BME280;19554;42.652;23.364;2022-11-15T01:21:40;95181.13;;;5.59;68.00
33191;BME280;19554;42.652;23.364;2022-11-15T01:24:06;95188.75;;;5.56;67.88
33191;BME280;19554;42.652;23.364;2022-11-15T01:26:31;95184.66;;;5.48;67.90
33191;BME280;19554;42.652;23.364;2022-11-15T01:28:56;95162.84;;;5.41;67.91
33191;BME280;19554;42.652;23.364;2022-11-15T01:31:22;95166.94;;;5.49;68.01
33191;BME280;19554;42.652;23.364;2022-11-15T01:33:47;95008.66;;;4.44;67.85
33191;BME280;19554;42.652;23.364;2022-11-15T01:36:15;95174.94;;;5.54;68.51
33191;BME280;19554;42.652;23.364;2022-11-15T01:38:41;95156.75;;;5.40;68.12
33191;BME280;19554;42.652;23.364;2022-11-15T01:41:18;95177.28;;;5.50;66.75
33191;BME280;19554;42.652;23.364;2022-11-15T01:43:46;95174.09;;;5.48;66.29
33191;BME280;19554;42.652;23.364;2022-11-15T01:48:46;95134.78;;;5.23;68.02
33191;BME280;19554;42.652;23.364;2022-11-15T01:51:13;95176.56;;;5.55;67.95
33191;BME280;19554;42.652;23.364;2022-11-15T01:53:44;95173.91;;;5.55;68.65
33191;BME280;19554;42.652;23.364;2022-11-15T01:56:18;95171.34;;;5.60;68.43
33191;BME280;19554;42.652;23.364;2022-11-15T01:58:45;95167.66;;;5.61;68.96
33191;BME280;19554;42.652;23.364;2022-11-15T02:01:13;95107.50;;;5.22;68.63
33191;BME280;19554;42.652;23.364;2022-11-15T02:04:08;95165.50;;;5.58;68.78
33191;BME280;19554;42.652;23.364;2022-11-15T02:06:35;95157.41;;;5.47;68.98
33191;BME280;19554;42.652;23.364;2022-11-15T02:09:01;95178.09;;;5.51;68.03
33191;BME280;19554;42.652;23.364;2022-11-15T02:11:26;95150.81;;;5.33;67.07
33191;BME280;19554;42.652;23.364;2022-11-15T02:13:52;95166.78;;;5.38;66.98
33191;BME280;19554;42.652;23.364;2022-11-15T02:19:21;95162.69;;;5.47;68.52
33191;BME280;19554;42.652;23.364;2022-11-15T02:27:55;95166.38;;;5.46;67.20
33191;BME280;19554;42.652;23.364;2022-11-15T02:33:03;95165.72;;;5.39;67.51
33191;BME280;19554;42.652;23.364;2022-11-15T02:35:52;95167.81;;;5.37;67.55
33191;BME280;19554;42.652;23.364;2022-11-15T02:38:42;95161.91;;;5.30;68.34
33191;BME280;19554;42.652;23.364;2022-11-15T02:41:32;95163.97;;;5.28;68.38
33191;BME280;19554;42.652;23.364;2022-11-15T02:44:10;95142.63;;;5.18;68.57
33191;BME280;19554;42.652;23.364;2022-11-15T02:46:58;95151.78;;;5.27;68.40
33191;BME280;19554;42.652;23.364;2022-11-15T02:49:51;95165.72;;;5.22;68.90
33191;BME280;19554;42.652;23.364;2022-11-15T02:52:21;95163.31;;;5.21;68.46
33191;BME280;19554;42.652;23.364;2022-11-15T02:54:54;95125.78;;;4.90;68.17
33191;BME280;19554;42.652;23.364;2022-11-15T03:00:06;95162.84;;;5.07;66.64
33191;BME280;19554;42.652;23.364;2022-11-15T03:05:50;95163.72;;;5.13;70.31
33191;BME280;19554;42.652;23.364;2022-11-15T03:08:31;95148.81;;;5.07;70.30
33191;BME280;19554;42.652;23.364;2022-11-15T03:11:11;95169.91;;;5.18;70.36
33191;BME280;19554;42.652;23.364;2022-11-15T03:14:00;95155.28;;;5.16;69.88
33191;BME280;19554;42.652;23.364;2022-11-15T03:16:37;95100.28;;;4.84;68.14
33191;BME280;19554;42.652;23.364;2022-11-15T03:19:19;95143.03;;;5.10;66.40
33191;BME280;19554;42.652;23.364;2022-11-15T03:21:51;95163.31;;;5.21;66.13
33191;BME280;19554;42.652;23.364;2022-11-15T03:24:19;95158.03;;;5.21;66.79
33191;BME280;19554;42.652;23.364;2022-11-15T03:26:47;95160.09;;;5.19;66.75
33191;BME280;19554;42.652;23.364;2022-11-15T03:29:17;95104.03;;;4.88;66.82
33191;BME280;19554;42.652;23.364;2022-11-15T03:31:48;95131.81;;;5.03;66.94
33191;BME280;19554;42.652;23.364;2022-11-15T03:34:25;95156.91;;;5.17;67.25
33191;BME280;19554;42.652;23.364;2022-11-15T03:36:52;95058.91;;;4.61;68.00
33191;BME280;19554;42.652;23.364;2022-11-15T03:39:19;95045.94;;;4.60;68.37
33191;BME280;19554;42.652;23.364;2022-11-15T03:49:50;95130.63;;;5.27;68.77
33191;BME280;19554;42.652;23.364;2022-11-15T03:52:19;95108.16;;;5.13;67.89
33191;BME280;19554;42.652;23.364;2022-11-15T03:54:50;95124.53;;;5.27;67.57
33191;BME280;19554;42.652;23.364;2022-11-15T03:57:16;95130.13;;;5.30;67.99
33191;BME280;19554;42.652;23.364;2022-11-15T03:59:41;95124.09;;;5.18;67.37
33191;BME280;19554;42.652;23.364;2022-11-15T04:02:06;95126.41;;;4.97;68.01
33191;BME280;19554;42.652;23.364;2022-11-15T04:04:32;95121.59;;;4.78;68.29
33191;BME280;19554;42.652;23.364;2022-11-15T04:06:57;95121.56;;;4.61;70.24
33191;BME280;19554;42.652;23.364;2022-11-15T04:09:22;95120.72;;;4.43;70.98
33191;BME280;19554;42.652;23.364;2022-11-15T04:11:48;95121.66;;;4.37;71.16
33191;BME280;19554;42.652;23.364;2022-11-15T04:14:13;95125.81;;;4.33;71.41
33191;BME280;19554;42.652;23.364;2022-11-15T04:16:38;95123.06;;;4.28;71.32
33191;BME280;19554;42.652;23.364;2022-11-15T04:19:04;95119.63;;;4.27;71.19
33191;BME280;19554;42.652;23.364;2022-11-15T04:21:48;95123.53;;;4.25;70.95
33191;BME280;19554;42.652;23.364;2022-11-15T04:24:32;95115.50;;;4.20;71.49
33191;BME280;19554;42.652;23.364;2022-11-15T04:26:57;95101.94;;;4.28;72.09
33191;BME280;19554;42.652;23.364;2022-11-15T04:29:22;95110.28;;;4.37;73.45
33191;BME280;19554;42.652;23.364;2022-11-15T04:32:01;95113.22;;;4.52;73.74
33191;BME280;19554;42.652;23.364;2022-11-15T04:34:27;95118.69;;;4.62;73.21
33191;BME280;19554;42.652;23.364;2022-11-15T04:36:52;95115.66;;;4.70;72.89
33191;BME280;19554;42.652;23.364;2022-11-15T04:39:36;95118.25;;;4.82;73.01
33191;BME280;19554;42.652;23.364;2022-11-15T04:42:02;94999.56;;;4.07;72.40
33191;BME280;19554;42.652;23.364;2022-11-15T04:44:27;95015.06;;;4.03;72.17
33191;BME280;19554;42.652;23.364;2022-11-15T04:46:53;95112.84;;;4.77;72.88
33191;BME280;19554;42.652;23.364;2022-11-15T04:49:18;95111.34;;;4.81;72.83
33191;BME280;19554;42.652;23.364;2022-11-15T04:51:44;95095.75;;;4.68;72.93
33191;BME280;19554;42.652;23.364;2022-11-15T04:54:09;95117.44;;;4.98;73.10
33191;BME280;19554;42.652;23.364;2022-11-15T04:56:35;95114.88;;;5.04;72.96
33191;BME280;19554;42.652;23.364;2022-11-15T04:59:00;95117.13;;;5.12;72.71
33191;BME280;19554;42.652;23.364;2022-11-15T05:01:26;95120.19;;;5.20;72.81
33191;BME280;19554;42.652;23.364;2022-11-15T05:03:51;95110.88;;;5.18;72.60
33191;BME280;19554;42.652;23.364;2022-11-15T05:06:35;95102.47;;;5.21;72.34
33191;BME280;19554;42.652;23.364;2022-11-15T05:09:00;95114.72;;;5.27;72.25
33191;BME280;19554;42.652;23.364;2022-11-15T05:11:26;95118.06;;;5.39;72.06
33191;BME280;19554;42.652;23.364;2022-11-15T05:13:52;95127.47;;;5.47;71.71
33191;BME280;19554;42.652;23.364;2022-11-15T05:16:18;95108.81;;;5.37;71.67
33191;BME280;19554;42.652;23.364;2022-11-15T05:18:43;95124.63;;;5.54;71.35
33191;BME280;19554;42.652;23.364;2022-11-15T05:21:12;95085.69;;;5.32;71.27
33191;BME280;19554;42.652;23.364;2022-11-15T05:23:37;95121.50;;;5.57;71.09
33191;BME280;19554;42.652;23.364;2022-11-15T05:26:05;95125.78;;;5.58;70.89
33191;BME280;19554;42.652;23.364;2022-11-15T05:28:31;95117.69;;;5.47;71.23
33191;BME280;19554;42.652;23.364;2022-11-15T05:31:01;95124.97;;;5.57;71.00
33191;BME280;19554;42.652;23.364;2022-11-15T05:33:27;95129.22;;;5.58;70.72
33191;BME280;19554;42.652;23.364;2022-11-15T05:35:59;95074.47;;;5.25;70.70
33191;BME280;19554;42.652;23.364;2022-11-15T05:38:25;95126.81;;;5.57;70.64
33191;BME280;19554;42.652;23.364;2022-11-15T05:40:51;95116.78;;;5.59;70.37
33191;BME280;19554;42.652;23.364;2022-11-15T05:43:16;95059.00;;;5.17;70.48
33191;BME280;19554;42.652;23.364;2022-11-15T05:45:42;95123.63;;;5.55;70.27
33191;BME280;19554;42.652;23.364;2022-11-15T05:48:08;95126.56;;;5.58;70.34
33191;BME280;19554;42.652;23.364;2022-11-15T05:50:36;95101.22;;;5.45;70.37
33191;BME280;19554;42.652;23.364;2022-11-15T05:53:03;95097.53;;;5.46;70.25
33191;BME280;19554;42.652;23.364;2022-11-15T05:55:29;95101.53;;;5.49;70.38
33191;BME280;19554;42.652;23.364;2022-11-15T05:57:55;95123.94;;;5.58;70.30
33191;BME280;19554;42.652;23.364;2022-11-15T06:00:21;95117.25;;;5.56;70.29
33191;BME280;19554;42.652;23.364;2022-11-15T06:02:46;95071.81;;;5.25;71.03
33191;BME280;19554;42.652;23.364;2022-11-15T06:05:11;95118.31;;;5.55;70.91
33191;BME280;19554;42.652;23.364;2022-11-15T06:07:37;95062.19;;;5.19;70.97
33191;BME280;19554;42.652;23.364;2022-11-15T06:10:02;95111.03;;;5.45;70.92
33191;BME280;19554;42.652;23.364;2022-11-15T06:12:28;95123.66;;;5.60;71.20
33191;BME280;19554;42.652;23.364;2022-11-15T06:14:53;95123.34;;;5.56;71.34
33191;BME280;19554;42.652;23.364;2022-11-15T06:17:18;95125.69;;;5.53;72.02
33191;BME280;19554;42.652;23.364;2022-11-15T06:19:44;95130.06;;;5.64;71.73
33191;BME280;19554;42.652;23.364;2022-11-15T06:22:09;95135.03;;;5.77;71.09
33191;BME280;19554;42.652;23.364;2022-11-15T06:24:34;95134.63;;;5.85;70.76
33191;BME280;19554;42.652;23.364;2022-11-15T06:27:00;95134.22;;;5.93;70.59
33191;BME280;19554;42.652;23.364;2022-11-15T06:29:25;95048.28;;;5.45;70.72
33191;BME280;19554;42.652;23.364;2022-11-15T06:31:51;95080.47;;;5.76;70.80
33191;BME280;19554;42.652;23.364;2022-11-15T06:34:16;95129.19;;;6.14;71.01
33191;BME280;19554;42.652;23.364;2022-11-15T06:36:41;95128.69;;;6.17;70.85
33191;BME280;19554;42.652;23.364;2022-11-15T06:39:07;95122.41;;;6.23;70.60
33191;BME280;19554;42.652;23.364;2022-11-15T06:41:35;95092.03;;;5.70;71.24
33191;BME280;19554;42.652;23.364;2022-11-15T06:44:02;95105.63;;;5.57;72.62
33191;BME280;19554;42.652;23.364;2022-11-15T06:46:27;95128.59;;;5.34;74.67
33191;BME280;19554;42.652;23.364;2022-11-15T06:48:53;95056.22;;;4.90;75.50
33191;BME280;19554;42.652;23.364;2022-11-15T06:51:19;95024.13;;;4.53;76.11
33191;BME280;19554;42.652;23.364;2022-11-15T06:53:44;95124.91;;;5.18;76.18
33191;BME280;19554;42.652;23.364;2022-11-15T06:56:10;95124.53;;;5.10;76.33
33191;BME280;19554;42.652;23.364;2022-11-15T06:58:36;95129.97;;;5.20;76.54
33191;BME280;19554;42.652;23.364;2022-11-15T07:01:04;95034.56;;;4.76;76.46
33191;BME280;19554;42.652;23.364;2022-11-15T07:03:30;95102.13;;;5.34;75.82
33191;BME280;19554;42.652;23.364;2022-11-15T07:05:56;95101.53;;;5.49;74.90
33191;BME280;19554;42.652;23.364;2022-11-15T07:08:23;95075.06;;;5.49;74.29
33191;BME280;19554;42.652;23.364;2022-11-15T07:10:50;95122.41;;;5.84;73.78
33191;BME280;19554;42.652;23.364;2022-11-15T07:13:15;95069.13;;;5.59;73.36
33191;BME280;19554;42.652;23.364;2022-11-15T07:15:41;95122.97;;;6.03;73.18
33191;BME280;19554;42.652;23.364;2022-11-15T07:18:06;95037.03;;;5.55;72.80
33191;BME280;19554;42.652;23.364;2022-11-15T07:20:31;95044.66;;;5.74;72.54
33191;BME280;19554;42.652;23.364;2022-11-15T07:23:01;95084.59;;;6.06;72.35
33191;BME280;19554;42.652;23.364;2022-11-15T07:25:27;95106.25;;;6.25;72.32
33191;BME280;19554;42.652;23.364;2022-11-15T07:27:56;95061.94;;;5.98;72.09
33191;BME280;19554;42.652;23.364;2022-11-15T07:30:21;95110.59;;;6.09;72.48
33191;BME280;19554;42.652;23.364;2022-11-15T07:32:47;95116.88;;;5.86;73.54
33191;BME280;19554;42.652;23.364;2022-11-15T07:35:12;95098.50;;;5.57;74.28
33191;BME280;19554;42.652;23.364;2022-11-15T07:37:38;95086.88;;;5.41;74.82
33191;BME280;19554;42.652;23.364;2022-11-15T07:40:03;95092.91;;;5.37;75.82
33191;BME280;19554;42.652;23.364;2022-11-15T07:42:31;95121.44;;;5.52;76.06
33191;BME280;19554;42.652;23.364;2022-11-15T07:45:15;95098.38;;;5.30;76.46
33191;BME280;19554;42.652;23.364;2022-11-15T07:47:45;95100.44;;;5.28;77.08
33191;BME280;19554;42.652;23.364;2022-11-15T07:50:10;95092.75;;;5.27;77.38
33191;BME280;19554;42.652;23.364;2022-11-15T07:52:36;95124.16;;;5.57;76.74
33191;BME280;19554;42.652;23.364;2022-11-15T07:55:01;95118.84;;;5.57;76.86
33191;BME280;19554;42.652;23.364;2022-11-15T07:57:28;95114.34;;;5.74;76.23
33191;BME280;19554;42.652;23.364;2022-11-15T07:59:54;95112.97;;;5.88;75.46
33191;BME280;19554;42.652;23.364;2022-11-15T08:02:19;95023.19;;;5.48;74.66
33191;BME280;19554;42.652;23.364;2022-11-15T08:04:44;95046.78;;;5.72;74.05
33191;BME280;19554;42.652;23.364;2022-11-15T08:07:10;95047.09;;;5.75;73.82
33191;BME280;19554;42.652;23.364;2022-11-15T08:09:35;95115.00;;;6.25;73.67
33191;BME280;19554;42.652;23.364;2022-11-15T08:12:00;95104.41;;;6.25;73.53
33191;BME280;19554;42.652;23.364;2022-11-15T08:14:26;95112.97;;;6.10;74.10
33191;BME280;19554;42.652;23.364;2022-11-15T08:16:51;95089.34;;;5.65;74.90
33191;BME280;19554;42.652;23.364;2022-11-15T08:19:17;95104.03;;;5.56;76.46
33191;BME280;19554;42.652;23.364;2022-11-15T08:21:43;95059.88;;;4.89;78.05
33191;BME280;19554;42.652;23.364;2022-11-15T08:24:09;95058.59;;;5.25;77.84
33191;BME280;19554;42.652;23.364;2022-11-15T08:26:35;95007.78;;;5.23;76.61
33191;BME280;19554;42.652;23.364;2022-11-15T08:29:01;95011.22;;;5.45;76.61
33191;BME280;19554;42.652;23.364;2022-11-15T08:31:26;95081.84;;;6.01;75.70
33191;BME280;19554;42.652;23.364;2022-11-15T08:33:52;95063.25;;;5.96;75.29
33191;BME280;19554;42.652;23.364;2022-11-15T08:36:17;94960.38;;;5.43;74.23
33191;BME280;19554;42.652;23.364;2022-11-15T08:38:43;95077.41;;;6.28;74.16
33191;BME280;19554;42.652;23.364;2022-11-15T08:41:11;95098.72;;;6.38;74.22
33191;BME280;19554;42.652;23.364;2022-11-15T08:43:37;95045.47;;;6.18;74.31
33191;BME280;19554;42.652;23.364;2022-11-15T08:46:03;95093.22;;;6.45;74.26
33191;BME280;19554;42.652;23.364;2022-11-15T08:48:29;95022.69;;;6.17;73.51
33191;BME280;19554;42.652;23.364;2022-11-15T08:50:55;95057.00;;;6.56;72.94
33191;BME280;19554;42.652;23.364;2022-11-15T08:53:22;95077.38;;;6.77;72.59
33191;BME280;19554;42.652;23.364;2022-11-15T08:55:47;95029.09;;;6.48;72.50
33191;BME280;19554;42.652;23.364;2022-11-15T08:58:13;95057.19;;;6.76;72.29
33191;BME280;19554;42.652;23.364;2022-11-15T09:00:38;95079.47;;;7.07;71.81
33191;BME280;19554;42.652;23.364;2022-11-15T09:03:05;95057.50;;;7.17;71.31
33191;BME280;19554;42.652;23.364;2022-11-15T09:05:31;95059.94;;;7.24;70.86
33191;BME280;19554;42.652;23.364;2022-11-15T09:07:56;95030.94;;;7.12;70.78
33191;BME280;19554;42.652;23.364;2022-11-15T09:10:22;95059.28;;;7.39;70.65
33191;BME280;19554;42.652;23.364;2022-11-15T09:12:47;95016.88;;;7.11;70.63
33191;BME280;19554;42.652;23.364;2022-11-15T09:15:14;95055.75;;;6.96;72.42
33191;BME280;19554;42.652;23.364;2022-11-15T09:17:40;94993.53;;;6.76;72.25
33191;BME280;19554;42.652;23.364;2022-11-15T09:20:06;95042.66;;;7.21;71.76
33191;BME280;19554;42.652;23.364;2022-11-15T09:22:31;95046.22;;;7.32;71.48
33191;BME280;19554;42.652;23.364;2022-11-15T09:24:57;95025.72;;;7.22;71.26
33191;BME280;19554;42.652;23.364;2022-11-15T09:27:23;95013.03;;;7.34;70.45
33191;BME280;19554;42.652;23.364;2022-11-15T09:29:52;95014.16;;;7.44;70.27
33191;BME280;19554;42.652;23.364;2022-11-15T09:32:17;95028.09;;;7.66;69.78
33191;BME280;19554;42.652;23.364;2022-11-15T09:34:42;94968.88;;;7.18;70.36
33191;BME280;19554;42.652;23.364;2022-11-15T09:37:08;95022.25;;;7.69;70.04
33191;BME280;19554;42.652;23.364;2022-11-15T09:39:33;94996.16;;;7.56;69.98
33191;BME280;19554;42.652;23.364;2022-11-15T09:48:00;95012.97;;;7.77;69.74
33191;BME280;19554;42.652;23.364;2022-11-15T09:50:37;94996.56;;;7.90;69.37
33191;BME280;19554;42.652;23.364;2022-11-15T09:53:03;95000.25;;;7.89;70.08
33191;BME280;19554;42.652;23.364;2022-11-15T09:55:43;94826.53;;;7.02;69.35
33191;BME280;19554;42.652;23.364;2022-11-15T09:59:21;94987.88;;;8.25;68.84
33191;BME280;19554;42.652;23.364;2022-11-15T10:01:50;94941.84;;;8.04;68.23
33191;BME280;19554;42.652;23.364;2022-11-15T10:04:21;94969.00;;;8.32;68.19
33191;BME280;19554;42.652;23.364;2022-11-15T10:06:57;94980.50;;;8.48;67.79
33191;BME280;19554;42.652;23.364;2022-11-15T10:09:31;94885.72;;;7.91;67.38
33191;BME280;19554;42.652;23.364;2022-11-15T10:11:59;94942.94;;;8.34;67.45
33191;BME280;19554;42.652;23.364;2022-11-15T10:14:27;94946.69;;;8.53;67.34
33191;BME280;19554;42.652;23.364;2022-11-15T10:24:44;94941.66;;;8.67;67.05
33191;BME280;19554;42.652;23.364;2022-11-15T10:27:14;94961.88;;;8.68;67.30
33191;BME280;19554;42.652;23.364;2022-11-15T10:29:48;94956.53;;;8.78;67.31
33191;BME280;19554;42.652;23.364;2022-11-15T10:32:15;94927.28;;;8.43;67.70
33191;BME280;19554;42.652;23.364;2022-11-15T10:34:41;94920.63;;;8.50;68.06
33191;BME280;19554;42.652;23.364;2022-11-15T10:37:07;94892.16;;;8.56;67.61
33191;BME280;19554;42.652;23.364;2022-11-15T10:39:33;94935.25;;;8.94;67.34
33191;BME280;19554;42.652;23.364;2022-11-15T10:42:15;94881.50;;;8.71;67.02
33191;BME280;19554;42.652;23.364;2022-11-15T10:44:43;94875.38;;;8.76;66.49
33191;BME280;19554;42.652;23.364;2022-11-15T10:47:23;94922.22;;;8.82;66.83
33191;BME280;19554;42.652;23.364;2022-11-15T10:49:57;94917.69;;;8.83;66.88
33191;BME280;19554;42.652;23.364;2022-11-15T10:52:24;94910.78;;;8.61;67.47
33191;BME280;19554;42.652;23.364;2022-11-15T10:57:37;94893.47;;;8.28;68.96
33191;BME280;19554;42.652;23.364;2022-11-15T11:00:05;94901.69;;;8.01;70.25
33191;BME280;19554;42.652;23.364;2022-11-15T11:02:37;94901.63;;;7.75;71.55
33191;BME280;19554;42.652;23.364;2022-11-15T11:05:25;94887.81;;;7.68;72.18
33191;BME280;19554;42.652;23.364;2022-11-15T11:08:00;94885.16;;;7.73;72.41
33191;BME280;19554;42.652;23.364;2022-11-15T11:10:27;94881.97;;;7.71;72.15
33191;BME280;19554;42.652;23.364;2022-11-15T11:12:53;94861.22;;;7.58;72.25
33191;BME280;19554;42.652;23.364;2022-11-15T11:15:18;94876.41;;;7.78;72.29
33191;BME280;19554;42.652;23.364;2022-11-15T11:18:06;94868.16;;;7.69;72.63
33191;BME280;19554;42.652;23.364;2022-11-15T11:20:38;94872.69;;;7.79;72.37
33191;BME280;19554;42.652;23.364;2022-11-15T11:44:29;94819.25;;;7.75;72.99
33191;BME280;19554;42.652;23.364;2022-11-15T11:47:11;94808.63;;;7.75;73.05
33191;BME280;19554;42.652;23.364;2022-11-15T11:49:48;94809.72;;;7.90;72.37
33191;BME280;19554;42.652;23.364;2022-11-15T11:52:35;94782.09;;;7.80;71.99
33191;BME280;19554;42.652;23.364;2022-11-15T11:57:51;94809.72;;;8.10;71.66
33191;BME280;19554;42.652;23.364;2022-11-15T12:00:23;94806.81;;;8.12;71.52
33191;BME280;19554;42.652;23.364;2022-11-15T12:06:01;94795.91;;;8.18;71.39
33191;BME280;19554;42.652;23.364;2022-11-15T12:08:46;94786.06;;;8.19;71.32
33191;BME280;19554;42.652;23.364;2022-11-15T12:14:29;94701.28;;;7.92;71.10
33191;BME280;19554;42.652;23.364;2022-11-15T12:16:55;94748.00;;;8.34;70.50
33191;BME280;19554;42.652;23.364;2022-11-15T12:19:20;94770.34;;;8.48;70.12
33191;BME280;19554;42.652;23.364;2022-11-15T12:22:06;94770.63;;;8.46;70.43
33191;BME280;19554;42.652;23.364;2022-11-15T12:24:45;94770.34;;;8.48;70.53
33191;BME280;19554;42.652;23.364;2022-11-15T12:27:17;94761.81;;;8.51;70.41
33191;BME280;19554;42.652;23.364;2022-11-15T12:29:50;94659.84;;;7.91;70.07
33191;BME280;19554;42.652;23.364;2022-11-15T12:34:52;94754.34;;;8.63;69.93
33191;BME280;19554;42.652;23.364;2022-11-15T12:45:38;94734.88;;;8.68;69.74
33191;BME280;19554;42.652;23.364;2022-11-15T13:06:53;94720.28;;;8.65;70.16
33191;BME280;19554;42.652;23.364;2022-11-15T13:22:41;94692.34;;;8.58;70.67
33191;BME280;19554;42.652;23.364;2022-11-15T13:31:22;94648.00;;;8.43;70.19
33191;BME280;19554;42.652;23.364;2022-11-15T13:33:49;94661.31;;;8.48;70.34
33191;BME280;19554;42.652;23.364;2022-11-15T13:36:32;94684.38;;;8.63;70.75
33191;BME280;19554;42.652;23.364;2022-11-15T13:39:11;94687.81;;;8.68;70.84
33191;BME280;19554;42.652;23.364;2022-11-15T13:41:47;94674.53;;;8.63;70.71
33191;BME280;19554;42.652;23.364;2022-11-15T13:44:22;94589.59;;;8.12;70.60
33191;BME280;19554;42.652;23.364;2022-11-15T13:46:47;94647.13;;;8.63;70.11
33191;BME280;19554;42.652;23.364;2022-11-15T13:49:13;94689.78;;;8.97;69.71
33191;BME280;19554;42.652;23.364;2022-11-15T13:51:43;94622.38;;;8.62;69.39
33191;BME280;19554;42.652;23.364;2022-11-15T13:57:01;94682.56;;;9.02;69.54
33191;BME280;19554;42.652;23.364;2022-11-15T13:59:30;94668.00;;;8.90;69.63
33191;BME280;19554;42.652;23.364;2022-11-15T14:01:58;94682.25;;;9.09;69.13
33191;BME280;19554;42.652;23.364;2022-11-15T14:04:27;94682.25;;;9.09;69.19
33191;BME280;19554;42.652;23.364;2022-11-15T14:06:59;94670.53;;;9.10;69.01
33191;BME280;19554;42.652;23.364;2022-11-15T14:09:39;94666.59;;;9.02;69.03
33191;BME280;19554;42.652;23.364;2022-11-15T14:12:29;94674.31;;;9.04;69.05
33191;BME280;19554;42.652;23.364;2022-11-15T14:14:56;94654.41;;;8.91;69.41
33191;BME280;19554;42.652;23.364;2022-11-15T14:19:54;94668.56;;;8.87;70.02
33191;BME280;19554;42.652;23.364;2022-11-15T14:22:24;94669.94;;;8.79;70.48
33191;BME280;19554;42.652;23.364;2022-11-15T14:27:39;94598.63;;;8.21;71.21
33191;BME280;19554;42.652;23.364;2022-11-15T14:30:06;94652.78;;;8.46;71.65
33191;BME280;19554;42.652;23.364;2022-11-15T14:32:44;94667.13;;;8.50;71.87
33191;BME280;19554;42.652;23.364;2022-11-15T14:35:16;94671.94;;;8.48;72.24
33191;BME280;19554;42.652;23.364;2022-11-15T14:37:42;94668.75;;;8.46;72.36
33191;BME280;19554;42.652;23.364;2022-11-15T14:40:13;94673.03;;;8.42;72.39
33191;BME280;19554;42.652;23.364;2022-11-15T14:42:39;94634.22;;;8.20;72.39
33191;BME280;19554;42.652;23.364;2022-11-15T14:45:11;94631.31;;;8.17;72.45
33191;BME280;19554;42.652;23.364;2022-11-15T14:47:37;94622.84;;;8.10;72.23
33191;BME280;19554;42.652;23.364;2022-11-15T14:50:03;94681.50;;;8.44;72.31
33191;BME280;19554;42.652;23.364;2022-11-15T14:52:30;94682.03;;;8.41;72.33
33191;BME280;19554;42.652;23.364;2022-11-15T14:55:00;94676.22;;;8.39;72.54
33191;BME280;19554;42.652;23.364;2022-11-15T14:57:27;94583.34;;;7.77;72.65
33191;BME280;19554;42.652;23.364;2022-11-15T14:59:53;94673.03;;;8.31;73.01
33191;BME280;19554;42.652;23.364;2022-11-15T15:02:21;94674.34;;;8.29;73.15
33191;BME280;19554;42.652;23.364;2022-11-15T15:04:47;94666.91;;;8.31;73.13
33191;BME280;19554;42.652;23.364;2022-11-15T15:07:13;94673.56;;;8.28;73.03
33191;BME280;19554;42.652;23.364;2022-11-15T15:09:39;94685.78;;;8.29;73.38
33191;BME280;19554;42.652;23.364;2022-11-15T15:12:11;94677.81;;;8.35;73.01
33191;BME280;19554;42.652;23.364;2022-11-15T15:14:38;94595.50;;;7.99;72.75
33191;BME280;19554;42.652;23.364;2022-11-15T15:17:04;94596.53;;;8.03;72.18
33191;BME280;19554;42.652;23.364;2022-11-15T15:19:29;94627.31;;;8.24;72.03
33191;BME280;19554;42.652;23.364;2022-11-15T15:21:55;94540.84;;;7.77;71.46